sensor_id;sensor_type;location;lat;lon;timestamp;temperature;humidity
19924;DHT22;10124;53.068;18.224;2023-06-10T00:01:25;18.10;9.60
19924;DHT22;10124;53.068;18.224;2023-06-10T00:03:54;18.00;1.00
19924;DHT22;10124;53.068;18.224;2023-06-10T00:06:23;18.40;1.00
19924;DHT22;10124;53.068;18.224;2023-06-10T00:08:54;17.80;1.00
19924;DHT22;10124;53.068;18.224;2023-06-10T00:11:23;17.80;1.00
19924;DHT22;10124;53.068;18.224;2023-06-10T00:13:52;17.70;1.00
19924;DHT22;10124;53.068;18.224;2023-06-10T00:16:22;17.70;1.00
19924;DHT22;10124;53.068;18.224;2023-06-10T00:18:52;17.50;1.00
19924;DHT22;10124;53.068;18.224;2023-06-10T00:21:20;17.50;1.00
19924;DHT22;10124;53.068;18.224;2023-06-10T00:23:48;17.40;1.00
19924;DHT22;10124;53.068;18.224;2023-06-10T00:26:16;17.60;1.00
19924;DHT22;10124;53.068;18.224;2023-06-10T00:28:44;17.30;1.00
19924;DHT22;10124;53.068;18.224;2023-06-10T00:31:15;17.40;1.00
19924;DHT22;10124;53.068;18.224;2023-06-10T00:33:42;17.50;1.00
19924;DHT22;10124;53.068;18.224;2023-06-10T00:36:12;17.10;1.00
19924;DHT22;10124;53.068;18.224;2023-06-10T00:38:41;17.00;1.00
19924;DHT22;10124;53.068;18.224;2023-06-10T00:41:10;17.00;1.00
19924;DHT22;10124;53.068;18.224;2023-06-10T00:43:40;16.90;1.00
19924;DHT22;10124;53.068;18.224;2023-06-10T00:46:10;16.90;1.00
19924;DHT22;10124;53.068;18.224;2023-06-10T00:48:43;16.90;1.00
19924;DHT22;10124;53.068;18.224;2023-06-10T00:51:12;16.90;1.00
19924;DHT22;10124;53.068;18.224;2023-06-10T00:53:40;16.80;1.00
19924;DHT22;10124;53.068;18.224;2023-06-10T00:56:13;16.70;1.00
19924;DHT22;10124;53.068;18.224;2023-06-10T00:58:40;16.70;1.00
19924;DHT22;10124;53.068;18.224;2023-06-10T01:01:08;16.70;1.00
19924;DHT22;10124;53.068;18.224;2023-06-10T01:03:39;16.60;1.00
19924;DHT22;10124;53.068;18.224;2023-06-10T01:11:48;16.60;1.00
19924;DHT22;10124;53.068;18.224;2023-06-10T01:14:17;16.60;1.00
19924;DHT22;10124;53.068;18.224;2023-06-10T01:16:45;16.50;1.00
19924;DHT22;10124;53.068;18.224;2023-06-10T01:19:14;16.50;1.00
19924;DHT22;10124;53.068;18.224;2023-06-10T01:21:45;16.60;1.00
19924;DHT22;10124;53.068;18.224;2023-06-10T01:24:18;16.60;1.00
19924;DHT22;10124;53.068;18.224;2023-06-10T01:26:50;16.60;1.00
19924;DHT22;10124;53.068;18.224;2023-06-10T01:29:32;16.50;1.00
19924;DHT22;10124;53.068;18.224;2023-06-10T01:32:11;16.60;1.00
19924;DHT22;10124;53.068;18.224;2023-06-10T01:34:42;16.50;1.00
19924;DHT22;10124;53.068;18.224;2023-06-10T01:37:16;16.50;1.00
19924;DHT22;10124;53.068;18.224;2023-06-10T01:39:48;16.50;1.00
19924;DHT22;10124;53.068;18.224;2023-06-10T01:42:17;16.50;1.00
19924;DHT22;10124;53.068;18.224;2023-06-10T01:44:45;16.50;1.00
19924;DHT22;10124;53.068;18.224;2023-06-10T01:47:13;16.40;1.00
19924;DHT22;10124;53.068;18.224;2023-06-10T01:49:43;16.40;1.00
19924;DHT22;10124;53.068;18.224;2023-06-10T01:52:14;16.50;1.00
19924;DHT22;10124;53.068;18.224;2023-06-10T01:54:42;16.40;1.00
19924;DHT22;10124;53.068;18.224;2023-06-10T01:57:12;15.80;1.00
19924;DHT22;10124;53.068;18.224;2023-06-10T01:59:40;16.40;1.00
19924;DHT22;10124;53.068;18.224;2023-06-10T02:02:12;16.40;1.00
19924;DHT22;10124;53.068;18.224;2023-06-10T02:04:41;16.30;1.00
19924;DHT22;10124;53.068;18.224;2023-06-10T02:07:10;16.20;1.00
19924;DHT22;10124;53.068;18.224;2023-06-10T02:09:39;16.20;1.00
19924;DHT22;10124;53.068;18.224;2023-06-10T02:12:08;17.70;1.00
19924;DHT22;10124;53.068;18.224;2023-06-10T02:14:36;15.10;1.00
19924;DHT22;10124;53.068;18.224;2023-06-10T02:17:04;16.10;1.00
19924;DHT22;10124;53.068;18.224;2023-06-10T02:19:32;16.10;1.00
19924;DHT22;10124;53.068;18.224;2023-06-10T02:22:04;16.00;1.00
19924;DHT22;10124;53.068;18.224;2023-06-10T02:24:35;16.00;1.00
19924;DHT22;10124;53.068;18.224;2023-06-10T02:27:04;16.50;1.00
19924;DHT22;10124;53.068;18.224;2023-06-10T02:29:34;16.10;1.00
19924;DHT22;10124;53.068;18.224;2023-06-10T02:32:04;16.00;1.00
19924;DHT22;10124;53.068;18.224;2023-06-10T02:34:35;16.10;1.00
19924;DHT22;10124;53.068;18.224;2023-06-10T02:37:06;16.20;1.00
19924;DHT22;10124;53.068;18.224;2023-06-10T02:39:37;16.20;1.00
19924;DHT22;10124;53.068;18.224;2023-06-10T02:42:09;16.30;1.00
19924;DHT22;10124;53.068;18.224;2023-06-10T02:44:38;16.40;1.00
19924;DHT22;10124;53.068;18.224;2023-06-10T02:47:08;16.50;1.00
19924;DHT22;10124;53.068;18.224;2023-06-10T02:49:39;17.40;1.00
19924;DHT22;10124;53.068;18.224;2023-06-10T02:52:12;16.50;1.00
19924;DHT22;10124;53.068;18.224;2023-06-10T02:54:43;16.50;1.00
19924;DHT22;10124;53.068;18.224;2023-06-10T02:57:15;16.40;1.00
19924;DHT22;10124;53.068;18.224;2023-06-10T02:59:43;16.50;1.00
19924;DHT22;10124;53.068;18.224;2023-06-10T03:02:12;16.50;1.00
19924;DHT22;10124;53.068;18.224;2023-06-10T03:04:47;16.50;1.00
19924;DHT22;10124;53.068;18.224;2023-06-10T03:07:19;16.50;1.00
19924;DHT22;10124;53.068;18.224;2023-06-10T03:09:50;16.50;1.00
19924;DHT22;10124;53.068;18.224;2023-06-10T03:12:18;18.20;1.00
19924;DHT22;10124;53.068;18.224;2023-06-10T03:14:47;16.60;1.00
19924;DHT22;10124;53.068;18.224;2023-06-10T03:17:18;16.60;1.00
19924;DHT22;10124;53.068;18.224;2023-06-10T03:19:46;16.60;1.00
19924;DHT22;10124;53.068;18.224;2023-06-10T03:22:18;16.60;1.00
19924;DHT22;10124;53.068;18.224;2023-06-10T03:24:58;16.70;1.00
19924;DHT22;10124;53.068;18.224;2023-06-10T03:27:29;16.70;1.00
19924;DHT22;10124;53.068;18.224;2023-06-10T03:30:02;16.70;1.00
19924;DHT22;10124;53.068;18.224;2023-06-10T03:32:34;16.70;1.00
19924;DHT22;10124;53.068;18.224;2023-06-10T03:35:05;17.50;1.00
19924;DHT22;10124;53.068;18.224;2023-06-10T03:37:35;16.70;1.00
19924;DHT22;10124;53.068;18.224;2023-06-10T03:40:04;17.80;1.00
19924;DHT22;10124;53.068;18.224;2023-06-10T03:42:35;16.80;1.00
19924;DHT22;10124;53.068;18.224;2023-06-10T03:45:05;16.80;1.00
19924;DHT22;10124;53.068;18.224;2023-06-10T03:47:37;16.80;1.00
19924;DHT22;10124;53.068;18.224;2023-06-10T03:50:09;16.90;1.00
19924;DHT22;10124;53.068;18.224;2023-06-10T03:52:41;17.00;1.00
19924;DHT22;10124;53.068;18.224;2023-06-10T03:55:09;17.20;1.00
19924;DHT22;10124;53.068;18.224;2023-06-10T03:57:41;17.10;1.00
19924;DHT22;10124;53.068;18.224;2023-06-10T04:00:09;17.20;1.00
19924;DHT22;10124;53.068;18.224;2023-06-10T04:02:44;17.40;1.00
19924;DHT22;10124;53.068;18.224;2023-06-10T04:05:31;17.40;1.00
19924;DHT22;10124;53.068;18.224;2023-06-10T04:08:05;17.60;1.00
19924;DHT22;10124;53.068;18.224;2023-06-10T04:10:34;17.70;1.00
19924;DHT22;10124;53.068;18.224;2023-06-10T04:13:04;17.70;1.00
19924;DHT22;10124;53.068;18.224;2023-06-10T04:15:40;17.80;1.00
19924;DHT22;10124;53.068;18.224;2023-06-10T04:18:12;17.90;1.00
19924;DHT22;10124;53.068;18.224;2023-06-10T04:20:41;17.90;1.00
19924;DHT22;10124;53.068;18.224;2023-06-10T04:23:10;17.90;1.00
19924;DHT22;10124;53.068;18.224;2023-06-10T04:25:39;17.90;1.00
19924;DHT22;10124;53.068;18.224;2023-06-10T04:28:08;18.10;1.00
19924;DHT22;10124;53.068;18.224;2023-06-10T04:30:37;18.00;1.00
19924;DHT22;10124;53.068;18.224;2023-06-10T04:33:07;18.10;1.00
19924;DHT22;10124;53.068;18.224;2023-06-10T04:35:39;18.10;1.00
19924;DHT22;10124;53.068;18.224;2023-06-10T04:38:10;18.10;1.00
19924;DHT22;10124;53.068;18.224;2023-06-10T04:40:37;18.10;1.00
19924;DHT22;10124;53.068;18.224;2023-06-10T04:43:09;18.20;1.00
19924;DHT22;10124;53.068;18.224;2023-06-10T04:45:37;18.30;1.00
19924;DHT22;10124;53.068;18.224;2023-06-10T04:48:07;18.30;1.00
19924;DHT22;10124;53.068;18.224;2023-06-10T04:50:35;18.40;1.00
19924;DHT22;10124;53.068;18.224;2023-06-10T04:53:06;18.60;1.00
19924;DHT22;10124;53.068;18.224;2023-06-10T04:55:37;18.70;1.00
19924;DHT22;10124;53.068;18.224;2023-06-10T04:58:04;18.90;99.90
19924;DHT22;10124;53.068;18.224;2023-06-10T05:00:32;19.10;1.00
19924;DHT22;10124;53.068;18.224;2023-06-10T05:03:00;19.30;1.00
19924;DHT22;10124;53.068;18.224;2023-06-10T05:05:28;19.50;1.00
19924;DHT22;10124;53.068;18.224;2023-06-10T05:07:57;19.60;1.00
19924;DHT22;10124;53.068;18.224;2023-06-10T05:10:27;20.30;1.00
19924;DHT22;10124;53.068;18.224;2023-06-10T05:12:59;19.90;1.00
19924;DHT22;10124;53.068;18.224;2023-06-10T05:15:29;19.80;1.00
19924;DHT22;10124;53.068;18.224;2023-06-10T05:17:59;19.90;1.00
19924;DHT22;10124;53.068;18.224;2023-06-10T05:20:29;19.90;1.00
19924;DHT22;10124;53.068;18.224;2023-06-10T05:22:57;19.90;1.00
19924;DHT22;10124;53.068;18.224;2023-06-10T05:25:30;19.80;1.00
19924;DHT22;10124;53.068;18.224;2023-06-10T05:28:00;19.90;1.00
19924;DHT22;10124;53.068;18.224;2023-06-10T05:30:28;19.90;1.00
19924;DHT22;10124;53.068;18.224;2023-06-10T05:32:59;19.90;1.00
19924;DHT22;10124;53.068;18.224;2023-06-10T05:35:27;20.10;1.00
19924;DHT22;10124;53.068;18.224;2023-06-10T05:37:56;20.00;1.00
19924;DHT22;10124;53.068;18.224;2023-06-10T05:40:24;20.00;1.00
19924;DHT22;10124;53.068;18.224;2023-06-10T05:42:54;20.20;1.00
19924;DHT22;10124;53.068;18.224;2023-06-10T05:45:24;20.30;1.00
19924;DHT22;10124;53.068;18.224;2023-06-10T05:47:53;20.30;1.00
19924;DHT22;10124;53.068;18.224;2023-06-10T05:50:24;20.20;1.00
19924;DHT22;10124;53.068;18.224;2023-06-10T05:52:52;20.30;1.00
19924;DHT22;10124;53.068;18.224;2023-06-10T05:55:22;20.40;1.00
19924;DHT22;10124;53.068;18.224;2023-06-10T05:57:58;20.40;1.00
19924;DHT22;10124;53.068;18.224;2023-06-10T06:00:31;20.50;1.00
19924;DHT22;10124;53.068;18.224;2023-06-10T06:03:02;20.80;1.00
19924;DHT22;10124;53.068;18.224;2023-06-10T06:05:40;20.80;1.00
19924;DHT22;10124;53.068;18.224;2023-06-10T06:08:13;20.90;1.00
19924;DHT22;10124;53.068;18.224;2023-06-10T06:10:58;21.20;1.00
19924;DHT22;10124;53.068;18.224;2023-06-10T06:13:27;21.30;1.00
19924;DHT22;10124;53.068;18.224;2023-06-10T06:16:02;21.40;1.00
19924;DHT22;10124;53.068;18.224;2023-06-10T06:18:38;21.30;1.00
19924;DHT22;10124;53.068;18.224;2023-06-10T06:21:18;21.60;1.00
19924;DHT22;10124;53.068;18.224;2023-06-10T06:23:59;21.70;1.00
19924;DHT22;10124;53.068;18.224;2023-06-10T06:26:39;22.30;1.00
19924;DHT22;10124;53.068;18.224;2023-06-10T06:29:12;22.60;1.00
19924;DHT22;10124;53.068;18.224;2023-06-10T06:31:40;22.90;1.00
19924;DHT22;10124;53.068;18.224;2023-06-10T06:34:08;22.40;1.00
19924;DHT22;10124;53.068;18.224;2023-06-10T06:36:36;22.40;1.00
19924;DHT22;10124;53.068;18.224;2023-06-10T06:39:04;22.60;1.00
19924;DHT22;10124;53.068;18.224;2023-06-10T06:41:33;22.80;1.00
19924;DHT22;10124;53.068;18.224;2023-06-10T06:44:03;22.20;1.00
19924;DHT22;10124;53.068;18.224;2023-06-10T06:46:32;22.80;1.00
19924;DHT22;10124;53.068;18.224;2023-06-10T06:49:01;22.70;1.00
19924;DHT22;10124;53.068;18.224;2023-06-10T06:51:29;22.90;1.00
19924;DHT22;10124;53.068;18.224;2023-06-10T06:53:57;22.80;1.00
19924;DHT22;10124;53.068;18.224;2023-06-10T06:56:26;22.90;1.00
19924;DHT22;10124;53.068;18.224;2023-06-10T06:58:55;23.20;1.00
19924;DHT22;10124;53.068;18.224;2023-06-10T07:01:24;23.50;1.00
19924;DHT22;10124;53.068;18.224;2023-06-10T07:03:52;23.30;1.00
19924;DHT22;10124;53.068;18.224;2023-06-10T07:06:20;23.00;1.00
19924;DHT22;10124;53.068;18.224;2023-06-10T07:08:49;22.60;1.00
19924;DHT22;10124;53.068;18.224;2023-06-10T07:11:17;23.40;1.00
19924;DHT22;10124;53.068;18.224;2023-06-10T07:13:45;24.20;1.00
19924;DHT22;10124;53.068;18.224;2023-06-10T07:16:13;24.80;1.00
19924;DHT22;10124;53.068;18.224;2023-06-10T07:18:42;24.70;1.00
19924;DHT22;10124;53.068;18.224;2023-06-10T07:21:12;25.10;1.00
19924;DHT22;10124;53.068;18.224;2023-06-10T07:23:43;25.40;1.00
19924;DHT22;10124;53.068;18.224;2023-06-10T07:26:13;25.10;1.00
19924;DHT22;10124;53.068;18.224;2023-06-10T07:28:41;25.20;1.00
19924;DHT22;10124;53.068;18.224;2023-06-10T07:31:09;25.20;1.00
19924;DHT22;10124;53.068;18.224;2023-06-10T07:33:37;25.50;1.00
19924;DHT22;10124;53.068;18.224;2023-06-10T07:36:06;25.50;1.00
19924;DHT22;10124;53.068;18.224;2023-06-10T07:38:37;26.00;1.00
19924;DHT22;10124;53.068;18.224;2023-06-10T07:41:05;25.90;1.00
19924;DHT22;10124;53.068;18.224;2023-06-10T07:43:33;26.60;1.00
19924;DHT22;10124;53.068;18.224;2023-06-10T07:46:01;27.30;1.00
19924;DHT22;10124;53.068;18.224;2023-06-10T07:48:29;27.10;1.00
19924;DHT22;10124;53.068;18.224;2023-06-10T07:50:57;26.70;1.00
19924;DHT22;10124;53.068;18.224;2023-06-10T07:53:25;27.00;1.00
19924;DHT22;10124;53.068;18.224;2023-06-10T07:55:57;27.10;1.00
19924;DHT22;10124;53.068;18.224;2023-06-10T07:58:27;27.50;1.00
19924;DHT22;10124;53.068;18.224;2023-06-10T08:00:55;27.50;1.00
19924;DHT22;10124;53.068;18.224;2023-06-10T08:03:23;27.30;1.00
19924;DHT22;10124;53.068;18.224;2023-06-10T08:05:52;26.90;1.00
19924;DHT22;10124;53.068;18.224;2023-06-10T08:08:21;27.30;1.00
19924;DHT22;10124;53.068;18.224;2023-06-10T08:10:48;27.20;1.00
19924;DHT22;10124;53.068;18.224;2023-06-10T08:13:17;27.70;1.00
19924;DHT22;10124;53.068;18.224;2023-06-10T08:15:45;28.30;1.00
19924;DHT22;10124;53.068;18.224;2023-06-10T08:18:15;27.80;1.00
19924;DHT22;10124;53.068;18.224;2023-06-10T08:20:43;27.50;1.00
19924;DHT22;10124;53.068;18.224;2023-06-10T08:23:11;27.70;1.00
19924;DHT22;10124;53.068;18.224;2023-06-10T08:25:44;28.20;1.00
19924;DHT22;10124;53.068;18.224;2023-06-10T08:28:12;28.60;1.00
19924;DHT22;10124;53.068;18.224;2023-06-10T08:30:40;27.90;1.00
19924;DHT22;10124;53.068;18.224;2023-06-10T08:33:07;28.00;1.00
19924;DHT22;10124;53.068;18.224;2023-06-10T08:35:35;27.90;1.00
19924;DHT22;10124;53.068;18.224;2023-06-10T08:38:06;28.20;1.00
19924;DHT22;10124;53.068;18.224;2023-06-10T08:40:33;28.20;1.00
19924;DHT22;10124;53.068;18.224;2023-06-10T08:43:10;28.80;1.00
19924;DHT22;10124;53.068;18.224;2023-06-10T08:45:48;29.10;1.00
19924;DHT22;10124;53.068;18.224;2023-06-10T08:48:17;29.40;1.00
19924;DHT22;10124;53.068;18.224;2023-06-10T08:50:49;29.10;1.00
19924;DHT22;10124;53.068;18.224;2023-06-10T08:53:18;29.50;1.00
19924;DHT22;10124;53.068;18.224;2023-06-10T08:55:51;29.40;1.00
19924;DHT22;10124;53.068;18.224;2023-06-10T08:58:20;29.50;1.00
19924;DHT22;10124;53.068;18.224;2023-06-10T09:00:47;29.90;1.00
19924;DHT22;10124;53.068;18.224;2023-06-10T09:03:16;30.10;1.00
19924;DHT22;10124;53.068;18.224;2023-06-10T09:05:44;31.10;77.60
19924;DHT22;10124;53.068;18.224;2023-06-10T09:08:13;31.10;1.00
19924;DHT22;10124;53.068;18.224;2023-06-10T09:10:43;31.20;1.00
19924;DHT22;10124;53.068;18.224;2023-06-10T09:13:12;31.00;1.00
19924;DHT22;10124;53.068;18.224;2023-06-10T09:15:42;31.30;1.00
19924;DHT22;10124;53.068;18.224;2023-06-10T09:18:11;31.00;1.00
19924;DHT22;10124;53.068;18.224;2023-06-10T09:20:39;30.90;1.00
19924;DHT22;10124;53.068;18.224;2023-06-10T09:23:07;29.90;1.00
19924;DHT22;10124;53.068;18.224;2023-06-10T09:25:36;29.90;20.20
19924;DHT22;10124;53.068;18.224;2023-06-10T09:28:14;29.90;7.10
19924;DHT22;10124;53.068;18.224;2023-06-10T09:30:42;30.40;1.00
19924;DHT22;10124;53.068;18.224;2023-06-10T09:33:12;30.40;1.00
19924;DHT22;10124;53.068;18.224;2023-06-10T09:35:47;30.60;1.00
19924;DHT22;10124;53.068;18.224;2023-06-10T09:38:22;30.60;1.00
19924;DHT22;10124;53.068;18.224;2023-06-10T09:40:50;30.60;1.00
19924;DHT22;10124;53.068;18.224;2023-06-10T09:43:19;30.40;67.20
19924;DHT22;10124;53.068;18.224;2023-06-10T09:45:50;30.30;1.00
19924;DHT22;10124;53.068;18.224;2023-06-10T09:48:22;31.20;1.00
19924;DHT22;10124;53.068;18.224;2023-06-10T09:50:51;31.30;1.00
19924;DHT22;10124;53.068;18.224;2023-06-10T09:53:19;31.70;1.00
19924;DHT22;10124;53.068;18.224;2023-06-10T09:55:47;31.60;1.00
19924;DHT22;10124;53.068;18.224;2023-06-10T09:58:15;31.80;1.00
19924;DHT22;10124;53.068;18.224;2023-06-10T10:00:43;31.30;8.90
19924;DHT22;10124;53.068;18.224;2023-06-10T10:03:22;32.30;1.00
19924;DHT22;10124;53.068;18.224;2023-06-10T10:05:58;32.20;1.00
19924;DHT22;10124;53.068;18.224;2023-06-10T10:08:27;32.10;1.00
19924;DHT22;10124;53.068;18.224;2023-06-10T10:10:56;32.50;1.00
19924;DHT22;10124;53.068;18.224;2023-06-10T10:13:26;33.00;1.00
19924;DHT22;10124;53.068;18.224;2023-06-10T10:15:57;32.70;1.00
19924;DHT22;10124;53.068;18.224;2023-06-10T10:18:29;32.40;1.00
19924;DHT22;10124;53.068;18.224;2023-06-10T10:21:01;32.10;1.00
19924;DHT22;10124;53.068;18.224;2023-06-10T10:23:44;32.60;1.00
19924;DHT22;10124;53.068;18.224;2023-06-10T10:26:17;32.30;26.50
19924;DHT22;10124;53.068;18.224;2023-06-10T10:31:32;33.00;1.00
19924;DHT22;10124;53.068;18.224;2023-06-10T10:34:12;33.50;1.00
19924;DHT22;10124;53.068;18.224;2023-06-10T10:36:41;32.30;1.00
19924;DHT22;10124;53.068;18.224;2023-06-10T10:39:10;32.20;7.00
19924;DHT22;10124;53.068;18.224;2023-06-10T10:41:39;31.40;39.30
19924;DHT22;10124;53.068;18.224;2023-06-10T10:44:08;31.80;1.00
19924;DHT22;10124;53.068;18.224;2023-06-10T10:46:45;32.50;15.10
19924;DHT22;10124;53.068;18.224;2023-06-10T10:49:17;33.20;1.00
19924;DHT22;10124;53.068;18.224;2023-06-10T10:51:56;33.00;1.00
19924;DHT22;10124;53.068;18.224;2023-06-10T10:54:32;33.40;1.00
19924;DHT22;10124;53.068;18.224;2023-06-10T10:57:14;33.50;1.00
19924;DHT22;10124;53.068;18.224;2023-06-10T11:02:33;32.90;19.10
19924;DHT22;10124;53.068;18.224;2023-06-10T11:05:02;33.50;99.90
19924;DHT22;10124;53.068;18.224;2023-06-10T11:07:34;33.90;99.90
19924;DHT22;10124;53.068;18.224;2023-06-10T11:10:12;33.40;99.90
19924;DHT22;10124;53.068;18.224;2023-06-10T11:15:25;33.20;99.90
19924;DHT22;10124;53.068;18.224;2023-06-10T11:21:01;33.20;53.70
19924;DHT22;10124;53.068;18.224;2023-06-10T11:23:41;32.10;34.60
19924;DHT22;10124;53.068;18.224;2023-06-10T11:33:59;33.90;94.50
19924;DHT22;10124;53.068;18.224;2023-06-10T11:36:29;34.20;62.70
19924;DHT22;10124;53.068;18.224;2023-06-10T11:38:59;33.40;99.90
19924;DHT22;10124;53.068;18.224;2023-06-10T11:41:29;33.10;99.90
19924;DHT22;10124;53.068;18.224;2023-06-10T11:44:03;33.00;98.30
19924;DHT22;10124;53.068;18.224;2023-06-10T11:46:34;32.80;99.90
19924;DHT22;10124;53.068;18.224;2023-06-10T11:49:05;32.90;99.90
19924;DHT22;10124;53.068;18.224;2023-06-10T11:51:40;33.50;99.90
19924;DHT22;10124;53.068;18.224;2023-06-10T11:54:14;33.00;1.00
19924;DHT22;10124;53.068;18.224;2023-06-10T11:56:43;33.00;99.90
19924;DHT22;10124;53.068;18.224;2023-06-10T11:59:14;32.70;99.90
19924;DHT22;10124;53.068;18.224;2023-06-10T12:01:45;33.20;99.90
19924;DHT22;10124;53.068;18.224;2023-06-10T12:04:16;33.60;99.90
19924;DHT22;10124;53.068;18.224;2023-06-10T12:06:48;34.00;62.40
19924;DHT22;10124;53.068;18.224;2023-06-10T12:09:28;34.20;99.90
19924;DHT22;10124;53.068;18.224;2023-06-10T12:12:00;32.70;1.00
19924;DHT22;10124;53.068;18.224;2023-06-10T12:14:52;32.10;99.90
19924;DHT22;10124;53.068;18.224;2023-06-10T12:20:01;32.70;1.00
19924;DHT22;10124;53.068;18.224;2023-06-10T12:25:08;31.50;99.90
19924;DHT22;10124;53.068;18.224;2023-06-10T12:27:53;31.70;99.90
19924;DHT22;10124;53.068;18.224;2023-06-10T12:30:27;32.00;1.00
19924;DHT22;10124;53.068;18.224;2023-06-10T12:32:59;31.80;99.90
19924;DHT22;10124;53.068;18.224;2023-06-10T12:35:28;31.80;99.90
19924;DHT22;10124;53.068;18.224;2023-06-10T12:38:00;32.10;99.90
19924;DHT22;10124;53.068;18.224;2023-06-10T12:40:32;31.90;99.90
19924;DHT22;10124;53.068;18.224;2023-06-10T12:43:02;31.50;99.90
19924;DHT22;10124;53.068;18.224;2023-06-10T12:45:34;32.30;99.90
19924;DHT22;10124;53.068;18.224;2023-06-10T12:48:24;32.80;99.90
19924;DHT22;10124;53.068;18.224;2023-06-10T12:50:58;32.10;1.00
19924;DHT22;10124;53.068;18.224;2023-06-10T12:53:28;32.50;1.00
19924;DHT22;10124;53.068;18.224;2023-06-10T12:56:00;32.20;99.90
19924;DHT22;10124;53.068;18.224;2023-06-10T12:58:30;31.90;99.90
19924;DHT22;10124;53.068;18.224;2023-06-10T13:00:59;31.30;98.70
19924;DHT22;10124;53.068;18.224;2023-06-10T13:03:27;32.30;99.90
19924;DHT22;10124;53.068;18.224;2023-06-10T13:05:59;31.80;99.90
19924;DHT22;10124;53.068;18.224;2023-06-10T13:08:36;31.30;13.50
19924;DHT22;10124;53.068;18.224;2023-06-10T13:11:07;31.20;20.50
19924;DHT22;10124;53.068;18.224;2023-06-10T13:13:39;31.20;41.50
19924;DHT22;10124;53.068;18.224;2023-06-10T13:16:11;31.90;1.00
19924;DHT22;10124;53.068;18.224;2023-06-10T13:18:42;31.60;16.30
19924;DHT22;10124;53.068;18.224;2023-06-10T13:21:15;31.20;16.70
19924;DHT22;10124;53.068;18.224;2023-06-10T13:23:49;30.70;5.30
19924;DHT22;10124;53.068;18.224;2023-06-10T13:26:20;30.50;1.00
19924;DHT22;10124;53.068;18.224;2023-06-10T13:28:49;30.80;1.00
19924;DHT22;10124;53.068;18.224;2023-06-10T13:31:17;31.20;1.00
19924;DHT22;10124;53.068;18.224;2023-06-10T13:33:48;31.70;1.00
19924;DHT22;10124;53.068;18.224;2023-06-10T13:36:20;31.60;95.70
19924;DHT22;10124;53.068;18.224;2023-06-10T13:38:51;30.90;1.00
19924;DHT22;10124;53.068;18.224;2023-06-10T13:41:21;30.20;99.90
19924;DHT22;10124;53.068;18.224;2023-06-10T13:43:55;30.70;99.90
19924;DHT22;10124;53.068;18.224;2023-06-10T13:46:25;30.90;99.90
19924;DHT22;10124;53.068;18.224;2023-06-10T13:48:54;30.30;99.90
19924;DHT22;10124;53.068;18.224;2023-06-10T13:51:24;30.40;99.90
19924;DHT22;10124;53.068;18.224;2023-06-10T13:53:54;30.50;99.90
19924;DHT22;10124;53.068;18.224;2023-06-10T13:56:26;29.80;73.30
19924;DHT22;10124;53.068;18.224;2023-06-10T13:58:57;30.10;99.90
19924;DHT22;10124;53.068;18.224;2023-06-10T14:01:38;30.40;36.50
19924;DHT22;10124;53.068;18.224;2023-06-10T14:04:07;30.00;84.80
19924;DHT22;10124;53.068;18.224;2023-06-10T14:06:36;30.10;68.80
19924;DHT22;10124;53.068;18.224;2023-06-10T14:09:07;30.20;76.70
19924;DHT22;10124;53.068;18.224;2023-06-10T14:11:38;30.20;1.00
19924;DHT22;10124;53.068;18.224;2023-06-10T14:14:06;29.50;99.90
19924;DHT22;10124;53.068;18.224;2023-06-10T14:16:36;30.00;1.00
19924;DHT22;10124;53.068;18.224;2023-06-10T14:19:07;29.70;64.60
19924;DHT22;10124;53.068;18.224;2023-06-10T14:21:37;30.20;5.20
19924;DHT22;10124;53.068;18.224;2023-06-10T14:24:09;29.90;29.90
19924;DHT22;10124;53.068;18.224;2023-06-10T14:26:38;29.60;99.90
19924;DHT22;10124;53.068;18.224;2023-06-10T14:29:06;29.90;91.90
19924;DHT22;10124;53.068;18.224;2023-06-10T14:31:40;29.70;99.90
19924;DHT22;10124;53.068;18.224;2023-06-10T14:34:09;29.40;99.90
19924;DHT22;10124;53.068;18.224;2023-06-10T14:36:37;28.90;99.90
19924;DHT22;10124;53.068;18.224;2023-06-10T14:39:05;29.10;1.00
19924;DHT22;10124;53.068;18.224;2023-06-10T14:41:34;28.80;1.00
19924;DHT22;10124;53.068;18.224;2023-06-10T14:44:01;28.40;1.00
19924;DHT22;10124;53.068;18.224;2023-06-10T14:46:30;28.00;1.00
19924;DHT22;10124;53.068;18.224;2023-06-10T14:48:58;28.20;1.00
19924;DHT22;10124;53.068;18.224;2023-06-10T14:51:28;28.10;1.00
19924;DHT22;10124;53.068;18.224;2023-06-10T14:53:56;27.80;1.00
19924;DHT22;10124;53.068;18.224;2023-06-10T14:56:26;27.60;1.00
19924;DHT22;10124;53.068;18.224;2023-06-10T14:58:54;27.50;1.00
19924;DHT22;10124;53.068;18.224;2023-06-10T15:01:23;27.40;1.00
19924;DHT22;10124;53.068;18.224;2023-06-10T15:03:51;27.40;1.00
19924;DHT22;10124;53.068;18.224;2023-06-10T15:06:19;27.10;1.00
19924;DHT22;10124;53.068;18.224;2023-06-10T15:08:49;27.00;1.00
19924;DHT22;10124;53.068;18.224;2023-06-10T15:11:17;26.50;1.00
19924;DHT22;10124;53.068;18.224;2023-06-10T15:13:45;26.30;1.00
19924;DHT22;10124;53.068;18.224;2023-06-10T15:16:14;26.20;1.00
19924;DHT22;10124;53.068;18.224;2023-06-10T15:18:43;26.00;1.00
19924;DHT22;10124;53.068;18.224;2023-06-10T15:21:12;26.00;1.00
19924;DHT22;10124;53.068;18.224;2023-06-10T15:23:40;26.10;1.00
19924;DHT22;10124;53.068;18.224;2023-06-10T15:26:09;26.10;1.00
19924;DHT22;10124;53.068;18.224;2023-06-10T15:28:39;25.90;1.00
19924;DHT22;10124;53.068;18.224;2023-06-10T15:31:07;25.60;1.00
19924;DHT22;10124;53.068;18.224;2023-06-10T15:33:38;25.40;1.00
19924;DHT22;10124;53.068;18.224;2023-06-10T15:36:07;25.30;1.00
19924;DHT22;10124;53.068;18.224;2023-06-10T15:38:35;25.40;1.00
19924;DHT22;10124;53.068;18.224;2023-06-10T15:41:02;25.10;1.00
19924;DHT22;10124;53.068;18.224;2023-06-10T15:43:33;25.10;1.00
19924;DHT22;10124;53.068;18.224;2023-06-10T15:46:03;25.20;1.00
19924;DHT22;10124;53.068;18.224;2023-06-10T15:48:31;25.20;1.00
19924;DHT22;10124;53.068;18.224;2023-06-10T15:51:00;24.90;1.00
19924;DHT22;10124;53.068;18.224;2023-06-10T15:53:28;24.70;1.00
19924;DHT22;10124;53.068;18.224;2023-06-10T15:55:57;24.70;1.00
19924;DHT22;10124;53.068;18.224;2023-06-10T15:58:25;24.80;1.00
19924;DHT22;10124;53.068;18.224;2023-06-10T16:00:53;24.70;1.00
19924;DHT22;10124;53.068;18.224;2023-06-10T16:03:21;24.80;1.00
19924;DHT22;10124;53.068;18.224;2023-06-10T16:05:50;24.80;1.00
19924;DHT22;10124;53.068;18.224;2023-06-10T16:08:17;24.80;1.00
19924;DHT22;10124;53.068;18.224;2023-06-10T16:10:45;24.70;1.00
19924;DHT22;10124;53.068;18.224;2023-06-10T16:13:14;24.50;1.00
19924;DHT22;10124;53.068;18.224;2023-06-10T16:15:45;24.40;1.00
19924;DHT22;10124;53.068;18.224;2023-06-10T16:18:12;24.40;1.00